createdAt,value
2022-09-11T00:00:56.641Z,80.00
2022-09-11T00:01:56.723Z,79.96
2022-09-11T00:02:56.655Z,80.30
2022-09-11T00:03:56.615Z,80.16
2022-09-11T00:04:56.613Z,80.00
2022-09-11T00:05:56.595Z,80.00
2022-09-11T00:06:56.579Z,80.30
2022-09-11T00:07:56.582Z,80.00
2022-09-11T00:08:56.555Z,80.30
2022-09-11T00:09:56.550Z,80.20
2022-09-11T00:10:56.532Z,80.30
2022-09-11T00:11:56.522Z,80.40
2022-09-11T00:12:56.522Z,80.20
2022-09-11T00:13:56.498Z,80.10
2022-09-11T00:14:56.485Z,80.00
2022-09-11T00:15:56.509Z,80.40
2022-09-11T00:16:56.464Z,80.40
2022-09-11T00:17:56.466Z,80.40
2022-09-11T00:18:56.443Z,80.26
2022-09-11T00:19:56.431Z,80.30
2022-09-11T00:20:56.437Z,80.10
2022-09-11T00:21:56.413Z,80.80
2022-09-11T00:22:56.435Z,80.60
2022-09-11T00:23:56.388Z,80.40
2022-09-11T00:24:56.377Z,80.60
2022-09-11T00:25:56.364Z,80.70
2022-09-11T00:26:56.353Z,80.30
2022-09-11T00:27:56.354Z,80.60
2022-09-11T00:28:56.357Z,80.70
2022-09-11T00:29:56.322Z,80.70
2022-09-11T00:30:56.525Z,80.60
2022-09-11T00:31:56.301Z,80.90
2022-09-11T00:32:56.323Z,80.30
2022-09-11T00:33:56.280Z,80.70
2022-09-11T00:34:56.294Z,80.40
2022-09-11T00:35:56.256Z,80.80
2022-09-11T00:36:56.258Z,80.90
2022-09-11T00:37:56.246Z,80.50
2022-09-11T00:38:56.221Z,80.30
2022-09-11T00:39:56.260Z,80.80
2022-09-11T00:40:56.207Z,80.80
2022-09-11T00:41:56.189Z,80.70
2022-09-11T00:42:56.187Z,80.60
2022-09-11T00:43:56.165Z,80.60
2022-09-11T00:44:56.153Z,80.50
2022-09-11T00:45:56.196Z,80.74
2022-09-11T00:46:56.135Z,81.01
2022-09-11T00:47:57.726Z,80.94
2022-09-11T00:48:56.110Z,80.60
2022-09-11T00:49:56.101Z,80.70
2022-09-11T00:50:56.111Z,80.30
2022-09-11T00:51:56.077Z,80.20
2022-09-11T00:52:56.086Z,80.60
2022-09-11T00:53:56.069Z,80.44
2022-09-11T00:54:56.098Z,80.54
2022-09-11T00:55:56.034Z,81.15
2022-09-11T00:56:56.021Z,81.04
2022-09-11T00:57:56.012Z,81.04
2022-09-11T00:58:56.012Z,81.24
2022-09-11T00:59:55.988Z,81.04
2022-09-11T01:00:56.046Z,81.04
2022-09-11T01:01:56.046Z,81.04
2022-09-11T01:02:55.961Z,81.24
2022-09-11T01:03:55.947Z,81.01
2022-09-11T01:04:55.947Z,81.15
2022-09-11T01:05:55.924Z,81.30
2022-09-11T01:06:55.932Z,81.24
2022-09-11T01:07:55.912Z,81.45
2022-09-11T01:08:55.906Z,81.35
2022-09-11T01:09:55.890Z,81.51
2022-09-11T01:10:55.867Z,80.74
2022-09-11T01:11:55.857Z,81.15
2022-09-11T01:12:55.853Z,81.15
2022-09-11T01:13:55.834Z,80.94
2022-09-11T01:14:55.879Z,81.35
2022-09-11T01:15:55.822Z,81.15
2022-09-11T01:16:55.803Z,81.45
2022-09-11T01:17:55.799Z,81.45
2022-09-11T01:18:55.781Z,81.35
2022-09-11T01:19:55.770Z,81.15
2022-09-11T01:20:55.756Z,81.45
2022-09-11T01:21:55.747Z,81.45
2022-09-11T01:22:55.743Z,81.45
2022-09-11T01:23:55.723Z,81.35
2022-09-11T01:24:55.727Z,81.35
2022-09-11T01:25:55.702Z,81.15
2022-09-11T01:26:55.690Z,81.55
2022-09-11T01:27:55.688Z,81.15
2022-09-11T01:28:55.667Z,80.94
2022-09-11T01:29:55.661Z,80.94
2022-09-11T01:30:55.718Z,81.55
2022-09-11T01:31:55.636Z,81.45
2022-09-11T01:32:55.636Z,81.55
2022-09-11T01:33:55.614Z,81.15
2022-09-11T01:34:55.600Z,81.35
2022-09-11T01:35:55.590Z,81.55
2022-09-11T01:36:55.579Z,81.35
2022-09-11T01:37:55.575Z,81.24
2022-09-11T01:38:55.572Z,81.24
2022-09-11T01:39:55.568Z,81.15
2022-09-11T01:40:55.554Z,81.45
2022-09-11T01:41:55.527Z,81.24
2022-09-11T01:42:55.513Z,81.45
2022-09-11T01:43:55.516Z,81.15
2022-09-11T01:44:55.490Z,81.04
2022-09-11T01:45:55.544Z,81.15
2022-09-11T01:46:55.468Z,81.04
2022-09-11T01:47:55.470Z,81.15
2022-09-11T01:48:55.446Z,81.15
2022-09-11T01:49:55.440Z,81.04
2022-09-11T01:50:55.424Z,80.94
2022-09-11T01:51:55.415Z,80.94
2022-09-11T01:52:55.412Z,80.94
2022-09-11T01:53:55.395Z,81.04
2022-09-11T01:54:55.381Z,81.48
2022-09-11T01:55:55.369Z,81.28
2022-09-11T01:56:55.374Z,81.38
2022-09-11T01:57:55.363Z,81.48
2022-09-11T01:58:55.334Z,81.28
2022-09-11T01:59:55.327Z,81.28
2022-09-11T02:00:55.355Z,81.28
2022-09-11T02:01:55.356Z,81.48
2022-09-11T02:02:55.303Z,81.38
2022-09-11T02:03:55.282Z,81.48
2022-09-11T02:04:55.290Z,81.79
2022-09-11T02:05:55.258Z,81.59
2022-09-11T02:06:55.248Z,81.59
2022-09-11T02:07:55.257Z,81.68
2022-09-11T02:08:55.224Z,81.68
2022-09-11T02:09:55.214Z,81.93
2022-09-11T02:10:55.230Z,81.99
2022-09-11T02:11:55.192Z,81.93
2022-09-11T02:12:55.215Z,81.99
2022-09-11T02:13:55.170Z,82.03
2022-09-11T02:14:55.155Z,82.19
2022-09-11T02:15:55.163Z,81.89
2022-09-11T02:16:55.137Z,81.89
2022-09-11T02:17:55.135Z,81.38
2022-09-11T02:18:55.114Z,81.48
2022-09-11T02:19:55.104Z,81.48
2022-09-11T02:20:55.090Z,81.28
2022-09-11T02:21:55.081Z,81.18
2022-09-11T02:22:55.079Z,81.48
2022-09-11T02:23:55.059Z,81.32
2022-09-11T02:24:55.049Z,81.38
2022-09-11T02:25:55.036Z,81.38
2022-09-11T02:26:55.025Z,81.32
2022-09-11T02:27:55.027Z,81.28
2022-09-11T02:28:55.024Z,81.48
2022-09-11T02:29:54.995Z,81.42
2022-09-11T02:30:54.980Z,81.38
2022-09-11T02:31:54.972Z,81.52
2022-09-11T02:32:54.971Z,81.68
2022-09-11T02:33:54.946Z,81.73
2022-09-11T02:34:54.937Z,81.82
2022-09-11T02:35:54.926Z,81.52
2022-09-11T02:36:54.915Z,81.42
2022-09-11T02:37:54.938Z,81.52
2022-09-11T02:38:54.893Z,81.62
2022-09-11T02:39:54.951Z,81.73
2022-09-11T02:40:54.869Z,81.52
2022-09-11T02:41:54.858Z,81.52
2022-09-11T02:42:54.858Z,81.82
2022-09-11T02:43:54.838Z,81.62
2022-09-11T02:44:54.847Z,81.82
2022-09-11T02:45:54.879Z,81.96
2022-09-11T02:46:54.820Z,81.96
2022-09-11T02:47:54.803Z,81.93
2022-09-11T02:48:54.781Z,82.23
2022-09-11T02:49:54.767Z,81.96
2022-09-11T02:50:54.760Z,81.87
2022-09-11T02:51:54.749Z,82.17
2022-09-11T02:52:54.749Z,81.87
2022-09-11T02:53:54.724Z,81.87
2022-09-11T02:54:54.717Z,81.96
2022-09-11T02:55:54.703Z,81.96
2022-09-11T02:56:54.696Z,81.87
2022-09-11T02:57:54.690Z,82.07
2022-09-11T02:58:54.671Z,81.96
2022-09-11T02:59:54.659Z,82.27
2022-09-11T03:00:54.719Z,81.46
2022-09-11T03:01:54.685Z,81.87
2022-09-11T03:02:54.643Z,82.37
2022-09-11T03:03:54.615Z,82.41
2022-09-11T03:04:54.607Z,82.37
2022-09-11T03:05:54.594Z,82.57
2022-09-11T03:06:54.585Z,82.51
2022-09-11T03:07:54.590Z,82.47
2022-09-11T03:08:54.564Z,82.47
2022-09-11T03:09:54.551Z,82.27
2022-09-11T03:10:54.542Z,82.27
2022-09-11T03:11:54.530Z,82.37
2022-09-11T03:12:54.529Z,82.27
2022-09-11T03:13:54.512Z,81.96
2022-09-11T03:14:54.498Z,82.47
2022-09-11T03:15:54.607Z,81.96
2022-09-11T03:16:54.497Z,81.96
2022-09-11T03:17:55.781Z,82.07
2022-09-11T03:18:54.455Z,81.46
2022-09-11T03:19:54.456Z,81.56
2022-09-11T03:20:54.431Z,81.96
2022-09-11T03:21:54.421Z,82.17
2022-09-11T03:22:54.428Z,82.41
2022-09-11T03:23:54.398Z,82.41
2022-09-11T03:24:54.388Z,82.37
2022-09-11T03:25:54.374Z,82.41
2022-09-11T03:26:54.365Z,82.31
2022-09-11T03:27:54.364Z,82.51
2022-09-11T03:28:54.366Z,82.01
2022-09-11T03:29:54.341Z,82.71
2022-09-11T03:30:54.322Z,82.81
2022-09-11T03:31:54.332Z,83.01
2022-09-11T03:32:54.329Z,82.71
2022-09-11T03:33:54.284Z,83.12
2022-09-11T03:34:54.276Z,82.81
2022-09-11T03:35:54.263Z,83.15
2022-09-11T03:36:54.256Z,82.81
2022-09-11T03:37:54.254Z,82.95
2022-09-11T03:38:54.231Z,82.95
2022-09-11T03:39:54.277Z,83.26
2022-09-11T03:40:54.236Z,83.01
2022-09-11T03:41:54.198Z,82.81
2022-09-11T03:42:54.199Z,82.91
2022-09-11T03:43:54.176Z,82.91
2022-09-11T03:44:54.169Z,82.85
2022-09-11T03:45:54.213Z,83.26
2022-09-11T03:46:54.150Z,82.04
2022-09-11T03:47:54.147Z,82.45
2022-09-11T03:48:54.142Z,82.95
2022-09-11T03:49:54.111Z,82.65
2022-09-11T03:50:54.107Z,81.84
2022-09-11T03:51:54.091Z,82.35
2022-09-11T03:52:56.318Z,82.35
2022-09-11T03:53:54.065Z,82.95
2022-09-11T03:54:54.056Z,83.26
2022-09-11T03:55:54.043Z,83.09
2022-09-11T03:56:54.034Z,83.40
2022-09-11T03:57:54.032Z,83.26
2022-09-11T03:58:54.012Z,82.85
2022-09-11T03:59:54.000Z,82.99
2022-09-11T04:00:54.102Z,82.89
2022-09-11T04:01:54.060Z,83.46
2022-09-11T04:02:53.981Z,83.40
2022-09-11T04:03:53.973Z,83.36
2022-09-11T04:04:53.967Z,82.85
2022-09-11T04:05:53.932Z,83.40
2022-09-11T04:06:53.925Z,83.15
2022-09-11T04:07:53.918Z,83.29
2022-09-11T04:08:53.902Z,83.19
2022-09-11T04:09:53.890Z,83.19
2022-09-11T04:10:53.877Z,82.99
2022-09-11T04:11:53.869Z,83.40
2022-09-11T04:12:53.865Z,83.29
2022-09-11T04:13:53.853Z,83.40
2022-09-11T04:14:53.838Z,83.40
2022-09-11T04:15:53.823Z,83.40
2022-09-11T04:16:53.814Z,83.40
2022-09-11T04:17:53.809Z,83.09
2022-09-11T04:18:53.796Z,83.19
2022-09-11T04:19:53.779Z,83.09
2022-09-11T04:20:53.785Z,83.29
2022-09-11T04:21:53.756Z,82.99
2022-09-11T04:22:53.754Z,83.09
2022-09-11T04:23:53.746Z,82.89
2022-09-11T04:24:53.744Z,83.09
2022-09-11T04:25:53.713Z,83.09
2022-09-11T04:26:58.601Z,82.79
2022-09-11T04:27:54.694Z,83.09
2022-09-11T04:28:53.699Z,83.09
2022-09-11T04:29:53.668Z,82.99
2022-09-11T04:30:53.658Z,82.89
2022-09-11T04:31:53.669Z,83.50
2022-09-11T04:32:53.642Z,83.40
2022-09-11T04:33:57.060Z,83.50
2022-09-11T04:34:53.619Z,83.60
2022-09-11T04:35:53.601Z,83.70
2022-09-11T04:36:53.612Z,83.94
2022-09-11T04:37:53.580Z,84.20
2022-09-11T04:38:53.583Z,84.31
2022-09-11T04:39:53.570Z,84.31
2022-09-11T04:40:53.551Z,84.51
2022-09-11T04:41:53.549Z,84.20
2022-09-11T04:42:54.336Z,84.91
2022-09-11T04:43:53.524Z,84.51
2022-09-11T04:44:53.505Z,85.11
2022-09-11T04:45:53.536Z,84.31
2022-09-11T04:46:53.483Z,84.41
2022-09-11T04:47:53.469Z,84.51
2022-09-11T04:48:53.475Z,84.57
2022-09-11T04:49:53.454Z,84.71
2022-09-11T04:50:53.438Z,84.17
2022-09-11T04:51:53.461Z,84.47
2022-09-11T04:52:53.432Z,84.67
2022-09-11T04:53:53.414Z,83.96
2022-09-11T04:54:53.394Z,83.96
2022-09-11T04:55:53.381Z,83.96
2022-09-11T04:56:53.372Z,83.66
2022-09-11T04:57:53.362Z,83.66
2022-09-11T04:58:53.386Z,83.76
2022-09-11T04:59:53.342Z,83.42
2022-09-11T05:00:53.343Z,83.42
2022-09-11T05:01:53.355Z,83.52
2022-09-11T05:02:53.307Z,83.42
2022-09-11T05:03:53.310Z,83.52
2022-09-11T05:04:53.287Z,83.52
2022-09-11T05:05:53.271Z,83.42
2022-09-11T05:06:53.266Z,83.52
2022-09-11T05:07:53.260Z,83.62
2022-09-11T05:08:53.262Z,83.72
2022-09-11T05:09:53.229Z,83.22
2022-09-11T05:10:53.216Z,83.22
2022-09-11T05:11:53.205Z,83.15
2022-09-11T05:12:58.320Z,83.22
2022-09-11T05:13:53.185Z,83.01
2022-09-11T05:14:53.177Z,83.01
2022-09-11T05:15:53.162Z,83.62
2022-09-11T05:16:53.153Z,83.62
2022-09-11T05:17:54.816Z,83.62
2022-09-11T05:18:53.130Z,83.52
2022-09-11T05:19:53.116Z,83.42
2022-09-11T05:20:53.109Z,83.52
2022-09-11T05:21:53.098Z,83.52
2022-09-11T05:22:53.094Z,83.01
2022-09-11T05:23:53.072Z,83.22
2022-09-11T05:24:53.080Z,82.91
2022-09-11T05:25:53.051Z,82.98
2022-09-11T05:26:53.043Z,82.78
2022-09-11T05:27:53.045Z,82.87
2022-09-11T05:28:53.024Z,82.98
2022-09-11T05:29:53.009Z,83.07
2022-09-11T05:30:52.996Z,82.98
2022-09-11T05:31:53.027Z,83.07
2022-09-11T05:32:52.985Z,83.07
2022-09-11T05:33:52.963Z,82.67
2022-09-11T05:34:52.955Z,82.78
2022-09-11T05:35:52.941Z,83.18
2022-09-11T05:36:52.942Z,82.87
2022-09-11T05:37:52.925Z,82.98
2022-09-11T05:38:52.912Z,82.98
2022-09-11T05:39:52.931Z,82.98
2022-09-11T05:40:52.906Z,83.18
2022-09-11T05:41:52.889Z,82.87
2022-09-11T05:42:52.865Z,82.84
2022-09-11T05:43:52.861Z,82.78
2022-09-11T05:44:52.844Z,83.04
2022-09-11T05:45:52.867Z,82.98
2022-09-11T05:46:52.839Z,82.98
2022-09-11T05:47:59.810Z,83.18
2022-09-11T05:48:52.800Z,83.07
2022-09-11T05:49:52.788Z,83.04
2022-09-11T05:50:52.778Z,82.64
2022-09-11T05:51:52.780Z,82.84
2022-09-11T05:52:55.316Z,82.87
2022-09-11T05:53:52.741Z,83.04
2022-09-11T05:54:52.730Z,82.84
2022-09-11T05:55:52.722Z,82.93
2022-09-11T05:56:52.741Z,82.93
2022-09-11T05:57:52.698Z,82.84
2022-09-11T05:58:52.688Z,83.18
2022-09-11T05:59:52.675Z,82.93
2022-09-11T06:00:52.683Z,82.67
2022-09-11T06:01:52.694Z,82.93
2022-09-11T06:02:52.646Z,82.78
2022-09-11T06:03:52.633Z,83.28
2022-09-11T06:04:52.620Z,83.18
2022-09-11T06:05:52.608Z,83.07
2022-09-11T06:06:52.610Z,82.98
2022-09-11T06:07:52.586Z,83.48
2022-09-11T06:08:52.579Z,83.38
2022-09-11T06:09:52.564Z,83.48
2022-09-11T06:10:52.557Z,83.68
2022-09-11T06:11:52.563Z,83.48
2022-09-11T06:12:52.548Z,83.58
2022-09-11T06:13:52.523Z,83.58
2022-09-11T06:14:52.512Z,83.78
2022-09-11T06:15:52.496Z,83.74
2022-09-11T06:16:52.633Z,83.34
2022-09-11T06:17:52.478Z,83.34
2022-09-11T06:18:52.473Z,83.44
2022-09-11T06:19:52.453Z,83.54
2022-09-11T06:20:52.443Z,83.34
2022-09-11T06:21:52.441Z,83.14
2022-09-11T06:22:53.840Z,83.14
2022-09-11T06:23:52.410Z,82.73
2022-09-11T06:24:52.402Z,83.44
2022-09-11T06:25:52.398Z,83.00
2022-09-11T06:26:52.378Z,82.70
2022-09-11T06:27:52.373Z,82.70
2022-09-11T06:28:52.374Z,82.79
2022-09-11T06:29:52.342Z,83.10
2022-09-11T06:30:52.389Z,82.70
2022-09-11T06:31:52.321Z,82.19
2022-09-11T06:32:54.822Z,82.19
2022-09-11T06:33:52.302Z,81.79
2022-09-11T06:34:52.289Z,81.59
2022-09-11T06:35:52.296Z,82.05
2022-09-11T06:36:52.591Z,82.39
2022-09-11T06:37:52.261Z,82.45
2022-09-11T06:38:52.247Z,82.15
2022-09-11T06:39:52.261Z,81.85
2022-09-11T06:40:52.235Z,81.95
2022-09-11T06:41:52.211Z,81.85
2022-09-11T06:42:52.200Z,81.85
2022-09-11T06:43:52.193Z,81.45
2022-09-11T06:44:52.195Z,81.81
2022-09-11T06:45:52.200Z,81.75
2022-09-11T06:46:52.155Z,80.90
2022-09-11T06:47:52.144Z,81.75
2022-09-11T06:48:52.134Z,81.15
2022-09-11T06:49:52.123Z,81.45
2022-09-11T06:50:52.126Z,81.55
2022-09-11T06:51:52.102Z,81.24
2022-09-11T06:52:52.098Z,81.15
2022-09-11T06:53:52.080Z,81.45
2022-09-11T06:54:52.069Z,81.45
2022-09-11T06:55:52.074Z,81.35
2022-09-11T06:56:52.045Z,81.45
2022-09-11T06:57:52.059Z,81.35
2022-09-11T06:58:52.043Z,81.15
2022-09-11T06:59:52.012Z,81.24
2022-09-11T07:00:52.062Z,81.24
2022-09-11T07:01:52.193Z,81.24
2022-09-11T07:02:56.716Z,81.35
2022-09-11T07:03:51.972Z,81.15
2022-09-11T07:04:51.954Z,81.35
2022-09-11T07:05:51.959Z,81.15
2022-09-11T07:06:51.944Z,81.04
2022-09-11T07:07:54.837Z,80.94
2022-09-11T07:08:51.911Z,80.94
2022-09-11T07:09:51.918Z,80.44
2022-09-11T07:10:51.904Z,80.30
2022-09-11T07:11:51.882Z,80.84
2022-09-11T07:12:51.871Z,80.20
2022-09-11T07:13:51.866Z,80.44
2022-09-11T07:14:51.851Z,80.94
2022-09-11T07:15:51.846Z,80.90
2022-09-11T07:16:51.903Z,81.15
2022-09-11T07:17:51.855Z,80.50
2022-09-11T07:18:51.801Z,80.54
2022-09-11T07:19:51.793Z,80.44
2022-09-11T07:20:51.781Z,80.84
2022-09-11T07:21:51.839Z,81.04
2022-09-11T07:22:51.759Z,80.30
2022-09-11T07:23:51.750Z,80.44
2022-09-11T07:24:51.741Z,80.64
2022-09-11T07:25:51.736Z,80.64
2022-09-11T07:26:51.733Z,80.84
2022-09-11T07:27:51.703Z,80.33
2022-09-11T07:28:51.693Z,80.84
2022-09-11T07:29:51.681Z,80.54
2022-09-11T07:30:51.706Z,80.94
2022-09-11T07:31:51.659Z,80.84
2022-09-11T07:32:51.663Z,80.84
2022-09-11T07:33:51.635Z,80.64
2022-09-11T07:34:51.626Z,80.50
2022-09-11T07:35:51.643Z,80.74
2022-09-11T07:36:51.611Z,80.33
2022-09-11T07:37:58.351Z,80.30
2022-09-11T07:38:51.578Z,80.44
2022-09-11T07:39:51.576Z,80.10
2022-09-11T07:40:51.571Z,80.10
2022-09-11T07:41:51.547Z,80.20
2022-09-11T07:42:51.540Z,80.00
2022-09-11T07:43:51.526Z,79.90
2022-09-11T07:44:51.514Z,80.06
2022-09-11T07:45:51.532Z,79.66
2022-09-11T07:46:51.489Z,79.60
2022-09-11T07:47:54.353Z,79.36
2022-09-11T07:48:51.483Z,79.25
2022-09-11T07:49:51.460Z,79.25
2022-09-11T07:50:51.455Z,79.22
2022-09-11T07:51:51.450Z,79.08
2022-09-11T07:52:51.427Z,77.26
2022-09-11T07:53:51.414Z,75.34
2022-09-11T07:54:51.412Z,72.97
2022-09-11T07:55:51.403Z,71.66
2022-09-11T07:56:51.381Z,69.39
2022-09-11T07:57:51.372Z,67.23
2022-09-11T07:58:51.367Z,66.56
2022-09-11T07:59:51.352Z,65.73
2022-09-11T08:00:51.359Z,63.68
2022-09-11T08:01:51.335Z,62.52
2022-09-11T08:02:51.316Z,61.69
2022-09-11T08:03:51.308Z,59.88
2022-09-11T08:04:51.320Z,61.10
2022-09-11T08:05:51.378Z,61.72
2022-09-11T08:06:51.271Z,61.53
2022-09-11T08:07:51.260Z,61.40
2022-09-11T08:08:51.250Z,61.80
2022-09-11T08:10:10.183Z,61.83
2022-09-11T08:10:52.226Z,61.25
2022-09-11T08:11:51.220Z,62.38
2022-09-11T08:12:51.226Z,62.61
2022-09-11T08:13:51.198Z,63.04
2022-09-11T08:14:51.196Z,63.70
2022-09-11T08:15:51.180Z,64.00
2022-09-11T08:16:51.266Z,65.03
2022-09-11T08:17:51.611Z,65.26
2022-09-11T08:18:51.148Z,65.99
2022-09-11T08:19:51.143Z,66.79
2022-09-11T08:20:51.140Z,66.89
2022-09-11T08:21:51.161Z,66.89
2022-09-11T08:22:54.316Z,66.79
2022-09-11T08:23:51.090Z,66.93
2022-09-11T08:24:51.085Z,67.93
2022-09-11T08:25:51.064Z,67.93
2022-09-11T08:26:51.053Z,68.32
2022-09-11T08:27:51.044Z,68.23
2022-09-11T08:28:51.031Z,68.32
2022-09-11T08:29:51.033Z,68.32
2022-09-11T08:30:51.073Z,68.13
2022-09-11T08:31:50.998Z,68.62
2022-09-11T08:32:50.988Z,69.02
2022-09-11T08:33:50.979Z,68.82
2022-09-11T08:34:50.980Z,69.26
2022-09-11T08:35:50.954Z,69.69
2022-09-11T08:36:50.963Z,69.79
2022-09-11T08:37:54.700Z,69.59
2022-09-11T08:38:50.922Z,69.73
2022-09-11T08:39:50.946Z,70.93
2022-09-11T08:40:50.917Z,70.23
2022-09-11T08:41:50.890Z,70.96
2022-09-11T08:42:50.876Z,71.06
2022-09-11T08:43:50.887Z,71.30
2022-09-11T08:44:50.869Z,71.70
2022-09-11T08:45:50.861Z,71.33
2022-09-11T08:46:50.834Z,71.39
2022-09-11T08:47:50.826Z,71.93
2022-09-11T08:48:50.814Z,72.24
2022-09-11T08:49:50.812Z,72.33
2022-09-11T08:50:50.792Z,72.53
2022-09-11T08:51:50.782Z,72.87
2022-09-11T08:52:50.786Z,73.27
2022-09-11T08:53:50.765Z,73.27
2022-09-11T08:54:50.765Z,73.17
2022-09-11T08:55:50.744Z,73.17
2022-09-11T08:56:50.729Z,73.47
2022-09-11T08:57:50.718Z,73.47
2022-09-11T08:58:50.705Z,73.44
2022-09-11T08:59:50.706Z,73.44
2022-09-11T09:00:50.685Z,73.44
2022-09-11T09:01:50.750Z,73.44
2022-09-11T09:02:50.664Z,73.64
2022-09-11T09:03:50.655Z,73.54
2022-09-11T09:04:50.659Z,73.44
2022-09-11T09:05:50.635Z,73.44
2022-09-11T09:06:50.620Z,73.24
2022-09-11T09:07:50.617Z,73.10
2022-09-11T09:08:50.633Z,72.50
2022-09-11T09:09:50.605Z,72.70
2022-09-11T09:10:50.578Z,72.50
2022-09-11T09:11:50.569Z,72.16
2022-09-11T09:12:50.556Z,72.16
2022-09-11T09:13:50.549Z,71.83
2022-09-11T09:14:50.550Z,70.93
2022-09-11T09:15:50.568Z,70.69
2022-09-11T09:16:50.516Z,70.50
2022-09-11T09:17:57.398Z,69.69
2022-09-11T09:18:50.530Z,70.09
2022-09-11T09:19:50.514Z,69.79
2022-09-11T09:20:50.479Z,70.59
2022-09-11T09:21:50.461Z,69.29
2022-09-11T09:22:50.450Z,69.39
2022-09-11T09:23:50.439Z,69.42
2022-09-11T09:24:50.460Z,69.42
2022-09-11T09:25:50.422Z,69.23
2022-09-11T09:26:50.408Z,69.79
2022-09-11T09:27:50.404Z,69.62
2022-09-11T09:28:50.387Z,69.59
2022-09-11T09:29:50.391Z,70.03
2022-09-11T09:30:50.403Z,70.62
2022-09-11T09:31:50.358Z,70.43
2022-09-11T09:32:50.346Z,70.53
2022-09-11T09:33:50.339Z,70.32
2022-09-11T09:34:50.344Z,69.82
2022-09-11T09:35:50.315Z,70.09
2022-09-11T09:36:50.303Z,70.23
2022-09-11T09:37:50.317Z,70.23
2022-09-11T09:38:50.286Z,69.62
2022-09-11T09:39:50.297Z,69.82
2022-09-11T09:40:50.280Z,70.43
2022-09-11T09:41:50.259Z,70.53
2022-09-11T09:42:50.240Z,70.62
2022-09-11T09:43:50.236Z,71.12
2022-09-11T09:44:50.234Z,70.83
2022-09-11T09:45:50.309Z,70.66
2022-09-11T09:46:51.154Z,71.46
2022-09-11T09:47:50.194Z,71.36
2022-09-11T09:48:50.177Z,71.09
2022-09-11T09:49:50.176Z,71.70
2022-09-11T09:50:50.157Z,71.93
2022-09-11T09:51:50.172Z,71.63
2022-09-11T09:52:50.133Z,72.13
2022-09-11T09:53:50.124Z,72.13
2022-09-11T09:54:50.122Z,72.24
2022-09-11T09:55:50.104Z,72.74
2022-09-11T09:56:50.110Z,72.63
2022-09-11T09:57:50.081Z,72.63
2022-09-11T09:58:50.070Z,72.50
2022-09-11T09:59:50.072Z,72.40
2022-09-11T10:00:50.048Z,72.30
2022-09-11T10:01:50.280Z,72.00
2022-09-11T10:02:50.028Z,71.19
2022-09-11T10:03:50.017Z,69.26
2022-09-11T10:04:50.018Z,68.79
2022-09-11T10:05:49.998Z,66.83
2022-09-11T10:06:49.984Z,65.17
2022-09-11T10:07:56.927Z,64.74
2022-09-11T10:08:49.972Z,65.56
2022-09-11T10:09:49.964Z,65.77
2022-09-11T10:10:49.944Z,65.50
2022-09-11T10:11:49.928Z,65.20
2022-09-11T10:12:49.935Z,65.30
2022-09-11T10:13:49.907Z,65.73
2022-09-11T10:14:52.025Z,66.23
2022-09-11T10:15:50.133Z,67.06
2022-09-11T10:16:49.874Z,67.19
2022-09-11T10:17:49.870Z,67.89
2022-09-11T10:18:49.856Z,68.52
2022-09-11T10:19:49.855Z,68.99
2022-09-11T10:20:49.874Z,69.32
2022-09-11T10:21:49.822Z,69.36
2022-09-11T10:22:49.807Z,69.76
2022-09-11T10:23:49.804Z,70.16
2022-09-11T10:24:49.798Z,69.69
2022-09-11T10:25:49.782Z,70.50
2022-09-11T10:26:49.770Z,69.39
2022-09-11T10:27:49.757Z,70.39
2022-09-11T10:28:49.760Z,69.59
2022-09-11T10:29:49.748Z,69.26
2022-09-11T10:30:49.757Z,69.69
2022-09-11T10:31:49.755Z,70.50
2022-09-11T10:32:49.700Z,69.69
2022-09-11T10:33:49.699Z,69.79
2022-09-11T10:34:49.696Z,69.59
2022-09-11T10:35:49.673Z,69.66
2022-09-11T10:36:49.655Z,69.26
2022-09-11T10:37:49.650Z,68.73
2022-09-11T10:38:49.636Z,69.43
2022-09-11T10:39:49.785Z,68.43
2022-09-11T10:40:49.631Z,68.19
2022-09-11T10:41:49.628Z,67.99
2022-09-11T10:42:54.679Z,67.89
2022-09-11T10:43:49.581Z,67.79
2022-09-11T10:44:49.603Z,68.09
2022-09-11T10:45:49.578Z,66.93
2022-09-11T10:46:49.547Z,66.79
2022-09-11T10:47:49.538Z,67.09
2022-09-11T10:48:49.527Z,66.89
2022-09-11T10:49:49.537Z,66.89
2022-09-11T10:50:49.507Z,67.13
2022-09-11T10:51:49.499Z,66.93
2022-09-11T10:52:49.485Z,67.43
2022-09-11T10:53:49.477Z,67.19
2022-09-11T10:54:49.542Z,67.19
2022-09-11T10:55:49.462Z,66.99
2022-09-11T10:56:49.441Z,66.89
2022-09-11T10:57:49.433Z,66.99
2022-09-11T10:58:52.304Z,66.39
2022-09-11T10:59:50.418Z,67.09
2022-09-11T11:00:49.414Z,66.99
2022-09-11T11:01:49.528Z,66.99
2022-09-11T11:02:49.393Z,66.89
2022-09-11T11:03:49.363Z,66.89
2022-09-11T11:04:49.365Z,67.19
2022-09-11T11:05:49.342Z,66.89
2022-09-11T11:06:49.363Z,66.89
2022-09-11T11:07:49.321Z,66.89
2022-09-11T11:08:49.322Z,66.99
2022-09-11T11:09:49.367Z,67.82
2022-09-11T11:10:49.294Z,67.82
2022-09-11T11:11:49.274Z,67.22
2022-09-11T11:13:03.957Z,67.05
2022-09-11T11:13:49.254Z,67.05
2022-09-11T11:14:49.258Z,67.36
2022-09-11T11:15:49.297Z,67.86
2022-09-11T11:16:49.241Z,67.69
2022-09-11T11:17:49.210Z,68.29
2022-09-11T11:18:49.201Z,68.19
2022-09-11T11:19:49.199Z,68.69
2022-09-11T11:20:49.178Z,69.09
2022-09-11T11:21:49.167Z,69.09
2022-09-11T11:22:49.158Z,69.19
2022-09-11T11:23:49.146Z,68.69
2022-09-11T11:24:49.179Z,69.09
2022-09-11T11:25:49.125Z,68.99
2022-09-11T11:26:49.119Z,68.99
2022-09-11T11:27:55.956Z,68.89
2022-09-11T11:28:49.128Z,68.99
2022-09-11T11:29:49.082Z,68.79
2022-09-11T11:30:49.137Z,68.89
2022-09-11T11:31:49.062Z,69.29
2022-09-11T11:32:49.067Z,69.19
2022-09-11T11:33:49.155Z,69.29
2022-09-11T11:34:49.070Z,69.59
2022-09-11T11:35:49.017Z,70.19
2022-09-11T11:36:49.016Z,69.79
2022-09-11T11:37:48.999Z,69.06
2022-09-11T11:38:49.007Z,69.46
2022-09-11T11:39:49.152Z,69.76
2022-09-11T11:40:48.967Z,69.66
2022-09-11T11:41:48.954Z,69.26
2022-09-11T11:42:52.759Z,69.79
2022-09-11T11:43:49.940Z,70.06
2022-09-11T11:44:48.933Z,69.66
2022-09-11T11:45:48.941Z,69.59
2022-09-11T11:46:48.904Z,70.06
2022-09-11T11:47:48.890Z,69.76
2022-09-11T11:48:48.901Z,69.39
2022-09-11T11:49:48.884Z,69.29
2022-09-11T11:50:48.859Z,68.69
2022-09-11T11:51:48.847Z,69.19
2022-09-11T11:52:48.837Z,68.69
2022-09-11T11:53:48.826Z,68.39
2022-09-11T11:54:48.828Z,68.26
2022-09-11T11:55:48.854Z,67.96
2022-09-11T11:56:48.795Z,68.46
2022-09-11T11:57:48.783Z,67.05
2022-09-11T11:58:48.996Z,67.55
2022-09-11T11:59:48.764Z,68.02
2022-09-11T12:00:52.204Z,67.86
2022-09-11T12:01:49.824Z,67.96
2022-09-11T12:02:48.732Z,67.93
2022-09-11T12:03:48.826Z,68.05
2022-09-11T12:04:48.729Z,68.23
2022-09-11T12:05:48.704Z,68.13
2022-09-11T12:06:48.691Z,67.82
2022-09-11T12:07:48.677Z,67.93
2022-09-11T12:08:48.676Z,67.82
2022-09-11T12:09:48.671Z,66.93
2022-09-11T12:10:48.650Z,67.72
2022-09-11T12:11:48.635Z,67.82
2022-09-11T12:12:48.625Z,68.23
2022-09-11T12:13:48.633Z,67.79
2022-09-11T12:14:48.606Z,67.09
2022-09-11T12:15:48.627Z,67.09
2022-09-11T12:16:48.584Z,67.09
2022-09-11T12:17:48.574Z,66.99
2022-09-11T12:18:48.581Z,66.29
2022-09-11T12:19:48.549Z,66.09
2022-09-11T12:20:48.557Z,65.59
2022-09-11T12:21:48.532Z,65.79
2022-09-11T12:22:48.518Z,65.69
2022-09-11T12:23:48.522Z,64.79
2022-09-11T12:24:48.494Z,64.59
2022-09-11T12:25:48.482Z,64.69
2022-09-11T12:26:48.474Z,64.09
2022-09-11T12:27:48.475Z,64.00
2022-09-11T12:28:48.467Z,63.79
2022-09-11T12:29:48.439Z,63.39
2022-09-11T12:30:48.428Z,63.59
2022-09-11T12:31:48.468Z,62.99
2022-09-11T12:32:48.410Z,62.49
2022-09-11T12:33:48.440Z,62.99
2022-09-11T12:34:48.400Z,63.49
2022-09-11T12:35:48.426Z,63.69
2022-09-11T12:36:48.385Z,64.00
2022-09-11T12:37:52.259Z,63.89
2022-09-11T12:38:49.354Z,64.29
2022-09-11T12:39:48.378Z,64.89
2022-09-11T12:40:48.319Z,65.12
2022-09-11T12:41:48.306Z,65.59
2022-09-11T12:42:48.299Z,64.89
2022-09-11T12:43:48.304Z,65.22
2022-09-11T12:44:48.275Z,65.49
2022-09-11T12:45:48.452Z,64.89
2022-09-11T12:46:48.252Z,64.99
2022-09-11T12:47:48.240Z,64.79
2022-09-11T12:49:05.645Z,64.79
2022-09-11T12:49:49.216Z,65.19
2022-09-11T12:50:48.213Z,65.29
2022-09-11T12:51:48.199Z,65.72
2022-09-11T12:52:48.204Z,65.09